createdAt,value
2023-02-15T00:00:18.875Z,47.28
2023-02-15T00:02:46.883Z,47.55
2023-02-15T00:05:15.126Z,47.19
2023-02-15T00:07:43.161Z,47.64
2023-02-15T00:10:13.063Z,47.48
2023-02-15T00:12:42.427Z,48.06
2023-02-15T00:15:12.458Z,48.14
2023-02-15T00:17:40.561Z,48.27
2023-02-15T00:20:09.837Z,48.01
2023-02-15T00:22:37.871Z,48.29
2023-02-15T00:25:06.657Z,48.35
2023-02-15T00:27:35.770Z,48.19
2023-02-15T00:30:06.803Z,48.37
2023-02-15T00:32:34.797Z,48.55
2023-02-15T00:35:02.933Z,48.48
2023-02-15T00:37:30.884Z,48.54
2023-02-15T00:39:59.089Z,48.73
2023-02-15T00:42:27.121Z,48.82
2023-02-15T00:44:55.314Z,48.84
2023-02-15T00:47:27.566Z,49.09
2023-02-15T00:49:55.562Z,49.02
2023-02-15T00:52:23.596Z,49.11
2023-02-15T00:54:51.781Z,49.21
2023-02-15T00:57:19.945Z,49.13
2023-02-15T00:59:47.888Z,49.28
2023-02-15T01:02:16.139Z,49.09
2023-02-15T01:04:45.961Z,49.14
2023-02-15T01:07:13.895Z,49.20
2023-02-15T01:09:41.882Z,49.10
2023-02-15T01:12:09.946Z,49.55
2023-02-15T01:14:37.966Z,49.35
2023-02-15T01:17:06.010Z,49.63
2023-02-15T01:19:35.290Z,49.75
2023-02-15T01:22:04.813Z,49.51
2023-02-15T01:24:33.034Z,49.51
2023-02-15T01:27:01.037Z,49.46
2023-02-15T01:29:29.006Z,49.63
2023-02-15T01:31:57.123Z,50.06
2023-02-15T01:34:27.364Z,49.88
2023-02-15T01:36:55.323Z,49.71
2023-02-15T01:39:25.061Z,50.11
2023-02-15T01:41:55.217Z,50.26
2023-02-15T01:44:53.676Z,50.44
2023-02-15T01:50:02.529Z,50.75
2023-02-15T01:52:31.966Z,50.28
2023-02-15T01:55:01.448Z,50.22
2023-02-15T01:57:30.704Z,50.42
2023-02-15T02:00:03.820Z,50.53
2023-02-15T02:02:32.723Z,50.44
2023-02-15T02:05:04.227Z,50.48
2023-02-15T02:07:36.326Z,50.53
2023-02-15T02:10:07.570Z,50.57
2023-02-15T02:12:38.069Z,50.78
2023-02-15T02:15:07.046Z,50.68
2023-02-15T02:17:44.549Z,50.56
2023-02-15T02:20:45.200Z,50.63
2023-02-15T02:23:30.654Z,50.40
2023-02-15T02:26:38.572Z,50.78
2023-02-15T02:29:39.086Z,50.60
2023-02-15T02:32:36.437Z,51.01
2023-02-15T02:35:13.704Z,50.83
2023-02-15T02:37:50.773Z,51.13
2023-02-15T02:40:27.248Z,50.95
2023-02-15T02:43:01.827Z,51.13
2023-02-15T02:45:36.653Z,51.45
2023-02-15T02:48:10.205Z,50.88
2023-02-15T02:50:42.873Z,51.41
2023-02-15T02:53:11.773Z,51.28
2023-02-15T02:55:44.482Z,51.19
2023-02-15T02:58:18.068Z,51.36
2023-02-15T03:00:50.934Z,51.23
2023-02-15T03:03:27.819Z,51.46
2023-02-15T03:06:00.920Z,51.65
2023-02-15T03:08:35.296Z,51.51
2023-02-15T03:11:04.739Z,51.63
2023-02-15T03:13:34.335Z,51.50
2023-02-15T03:16:22.677Z,51.32
2023-02-15T03:18:58.218Z,51.82
2023-02-15T03:21:33.530Z,51.78
2023-02-15T03:24:06.997Z,51.63
2023-02-15T03:26:36.708Z,51.58
2023-02-15T03:29:07.320Z,51.70
2023-02-15T03:31:40.439Z,51.55
2023-02-15T03:34:12.820Z,51.74
2023-02-15T03:36:48.739Z,51.72
2023-02-15T03:39:22.946Z,51.92
2023-02-15T03:41:58.766Z,51.80
2023-02-15T03:44:31.371Z,51.55
2023-02-15T03:47:06.683Z,51.98
2023-02-15T03:49:41.529Z,51.83
2023-02-15T03:52:13.230Z,52.00
2023-02-15T03:54:47.062Z,51.81
2023-02-15T03:57:35.999Z,52.24
2023-02-15T04:00:24.747Z,52.19
2023-02-15T04:03:22.844Z,52.44
2023-02-15T04:05:51.158Z,52.31
2023-02-15T04:08:20.599Z,52.16
2023-02-15T04:10:53.469Z,52.48
2023-02-15T04:13:21.539Z,52.32
2023-02-15T04:16:07.796Z,52.81
2023-02-15T04:18:55.216Z,52.69
2023-02-15T04:21:42.580Z,52.83
2023-02-15T04:24:29.833Z,53.00
2023-02-15T04:26:58.221Z,52.78
2023-02-15T04:29:27.579Z,52.61
2023-02-15T04:31:57.517Z,52.80
2023-02-15T04:34:25.822Z,52.58
2023-02-15T04:36:53.997Z,52.48
2023-02-15T04:39:23.520Z,52.38
2023-02-15T04:41:51.579Z,52.56
2023-02-15T04:44:19.676Z,52.47
2023-02-15T04:46:47.672Z,52.38
2023-02-15T04:49:15.692Z,52.42
2023-02-15T04:51:43.653Z,52.27
2023-02-15T04:54:11.643Z,52.36
2023-02-15T04:56:41.871Z,52.62
2023-02-15T04:59:12.308Z,52.21
2023-02-15T05:01:40.396Z,52.25
2023-02-15T05:04:08.417Z,52.41
2023-02-15T05:06:36.821Z,52.64
2023-02-15T05:09:04.960Z,52.50
2023-02-15T05:11:33.069Z,52.40
2023-02-15T05:14:02.434Z,52.57
2023-02-15T05:16:32.633Z,52.46
2023-02-15T05:19:00.751Z,52.29
2023-02-15T05:21:28.761Z,52.37
2023-02-15T05:23:56.723Z,52.51
2023-02-15T05:26:43.542Z,52.44
2023-02-15T05:29:13.266Z,52.86
2023-02-15T05:31:41.606Z,52.71
2023-02-15T05:34:09.807Z,52.57
2023-02-15T05:36:37.860Z,52.44
2023-02-15T05:39:07.010Z,52.47
2023-02-15T05:41:35.040Z,52.59
2023-02-15T05:44:03.078Z,52.54
2023-02-15T05:46:33.053Z,52.59
2023-02-15T05:49:01.076Z,52.45
2023-02-15T05:51:29.236Z,52.71
2023-02-15T05:53:57.276Z,52.85
2023-02-15T05:56:25.348Z,52.78
2023-02-15T05:58:55.444Z,52.90
2023-02-15T06:01:24.069Z,52.71
2023-02-15T06:03:55.137Z,52.78
2023-02-15T06:06:23.371Z,52.78
2023-02-15T06:08:51.366Z,52.71
2023-02-15T06:11:19.301Z,52.84
2023-02-15T06:13:47.395Z,52.67
2023-02-15T06:16:16.923Z,52.71
2023-02-15T06:18:45.219Z,53.00
2023-02-15T06:21:15.268Z,53.32
2023-02-15T06:23:44.144Z,52.81
2023-02-15T06:26:12.065Z,53.19
2023-02-15T06:28:42.152Z,53.18
2023-02-15T06:31:10.496Z,53.08
2023-02-15T06:33:39.305Z,52.87
2023-02-15T06:36:07.485Z,53.24
2023-02-15T06:38:37.007Z,53.12
2023-02-15T06:41:05.018Z,53.11
2023-02-15T06:43:33.154Z,53.27
2023-02-15T06:46:01.490Z,53.22
2023-02-15T06:48:29.783Z,53.02
2023-02-15T06:50:58.055Z,53.19
2023-02-15T06:53:25.995Z,53.21
2023-02-15T06:55:55.452Z,53.45
2023-02-15T06:58:23.483Z,53.33
2023-02-15T07:00:53.565Z,53.29
2023-02-15T07:03:21.617Z,53.51
2023-02-15T07:05:50.218Z,53.30
2023-02-15T07:08:21.388Z,53.45
2023-02-15T07:10:51.183Z,53.29
2023-02-15T07:13:20.198Z,53.55
2023-02-15T07:15:49.259Z,53.51
2023-02-15T07:18:17.352Z,53.55
2023-02-15T07:20:45.517Z,53.32
2023-02-15T07:23:13.598Z,53.34
2023-02-15T07:25:41.662Z,53.44
2023-02-15T07:28:10.797Z,53.60
2023-02-15T07:30:41.423Z,53.83
2023-02-15T07:33:28.211Z,53.89
2023-02-15T07:36:02.295Z,53.71
2023-02-15T07:38:33.092Z,53.64
2023-02-15T07:41:02.084Z,53.74
2023-02-15T07:43:31.470Z,54.05
2023-02-15T07:46:03.658Z,53.97
2023-02-15T07:48:31.926Z,53.94
2023-02-15T07:51:01.814Z,54.07
2023-02-15T07:53:30.166Z,54.15
2023-02-15T07:56:01.431Z,54.16
2023-02-15T07:58:43.651Z,53.85
2023-02-15T08:01:13.387Z,54.10
2023-02-15T08:03:41.920Z,54.24
2023-02-15T08:06:10.817Z,54.10
2023-02-15T08:08:38.925Z,54.24
2023-02-15T08:11:26.650Z,54.13
2023-02-15T08:13:57.372Z,54.15
2023-02-15T08:16:28.376Z,54.39
2023-02-15T08:18:57.932Z,54.05
2023-02-15T08:21:29.171Z,53.80
2023-02-15T08:23:58.189Z,54.07
2023-02-15T08:26:28.172Z,53.89
2023-02-15T08:28:56.474Z,53.99
2023-02-15T08:31:25.811Z,53.89
2023-02-15T08:33:57.229Z,53.85
2023-02-15T08:36:28.169Z,53.79
2023-02-15T08:38:56.268Z,53.63
2023-02-15T08:41:26.055Z,53.76
2023-02-15T08:43:55.940Z,53.60
2023-02-15T08:46:25.792Z,53.96
2023-02-15T08:48:55.773Z,53.86
2023-02-15T08:51:25.532Z,53.92
2023-02-15T08:53:55.490Z,53.64
2023-02-15T08:56:27.004Z,53.90
2023-02-15T08:58:55.521Z,54.08
2023-02-15T09:01:26.955Z,53.79
2023-02-15T09:03:58.534Z,53.89
2023-02-15T09:06:27.538Z,53.99
2023-02-15T09:08:56.016Z,53.78
2023-02-15T09:11:26.220Z,53.79
2023-02-15T09:13:56.500Z,54.00
2023-02-15T09:16:26.150Z,53.81
2023-02-15T09:18:54.855Z,53.99
2023-02-15T09:21:25.590Z,54.39
2023-02-15T09:23:58.787Z,54.18
2023-02-15T09:26:27.784Z,54.06
2023-02-15T09:28:57.753Z,53.92
2023-02-15T09:31:28.231Z,53.94
2023-02-15T09:33:57.088Z,53.86
2023-02-15T09:36:28.428Z,53.72
2023-02-15T09:38:59.501Z,53.39
2023-02-15T09:41:43.932Z,53.58
2023-02-15T09:44:26.727Z,53.30
2023-02-15T09:47:16.381Z,53.27
2023-02-15T09:49:56.247Z,53.11
2023-02-15T09:52:36.886Z,53.31
2023-02-15T09:55:27.183Z,53.30
2023-02-15T09:58:06.354Z,53.14
2023-02-15T10:00:42.652Z,53.19
2023-02-15T10:03:26.682Z,53.43
2023-02-15T10:06:08.046Z,53.13
2023-02-15T10:08:59.512Z,53.05
2023-02-15T10:11:42.620Z,52.80
2023-02-15T10:14:38.923Z,52.80
2023-02-15T10:17:22.698Z,52.91
2023-02-15T10:20:06.036Z,52.78
2023-02-15T10:22:44.789Z,52.61
2023-02-15T10:25:30.819Z,52.55
2023-02-15T10:28:05.576Z,52.37
2023-02-15T10:30:42.526Z,52.11
2023-02-15T10:33:22.533Z,52.11
2023-02-15T10:36:04.128Z,51.71
2023-02-15T10:38:42.455Z,51.96
2023-02-15T10:41:26.260Z,51.96
2023-02-15T10:44:12.188Z,51.98
2023-02-15T10:47:02.619Z,51.91
2023-02-15T10:49:55.734Z,52.08
2023-02-15T10:52:36.312Z,51.80
2023-02-15T10:55:16.094Z,51.69
2023-02-15T10:57:56.303Z,51.93
2023-02-15T11:00:32.334Z,51.96
2023-02-15T11:03:23.348Z,51.62
2023-02-15T11:06:00.953Z,52.22
2023-02-15T11:08:33.702Z,52.02
2023-02-15T11:11:06.291Z,52.04
2023-02-15T11:13:40.531Z,52.25
2023-02-15T11:16:18.285Z,52.29
2023-02-15T11:18:54.369Z,53.09
2023-02-15T11:21:26.883Z,53.29
2023-02-15T11:23:55.791Z,53.51
2023-02-15T11:26:31.114Z,53.97
2023-02-15T11:29:07.584Z,54.33
2023-02-15T11:31:45.847Z,55.07
2023-02-15T11:34:21.390Z,54.88
2023-02-15T11:36:53.339Z,55.30
2023-02-15T11:39:24.225Z,55.32
2023-02-15T11:41:55.978Z,55.65
2023-02-15T11:44:30.151Z,56.19
2023-02-15T11:46:58.736Z,56.42
2023-02-15T11:49:31.840Z,56.58
2023-02-15T11:52:01.997Z,57.08
2023-02-15T11:54:33.378Z,57.25
2023-02-15T11:57:13.779Z,57.42
2023-02-15T11:59:48.721Z,57.57
2023-02-15T12:02:19.531Z,57.87
2023-02-15T12:04:53.432Z,58.32
2023-02-15T12:07:27.669Z,58.30
2023-02-15T12:10:03.323Z,58.51
2023-02-15T12:12:33.154Z,58.83
2023-02-15T12:15:04.183Z,59.16
2023-02-15T12:17:35.120Z,59.35
2023-02-15T12:20:06.773Z,59.57
2023-02-15T12:22:38.232Z,59.38
2023-02-15T12:25:22.713Z,59.69
2023-02-15T12:27:51.490Z,59.75
2023-02-15T12:30:24.221Z,59.95
2023-02-15T12:32:56.096Z,59.96
2023-02-15T12:35:31.040Z,60.07
2023-02-15T12:38:02.619Z,60.34
2023-02-15T12:40:31.719Z,60.25
2023-02-15T12:42:59.973Z,60.44
2023-02-15T12:45:31.135Z,60.64
2023-02-15T12:48:18.232Z,60.45
2023-02-15T12:50:47.503Z,60.21
2023-02-15T12:53:20.142Z,60.41
2023-02-15T12:55:59.230Z,60.19
2023-02-15T12:58:29.160Z,60.29
2023-02-15T13:01:16.575Z,60.31
2023-02-15T13:03:59.804Z,60.36
2023-02-15T13:06:28.927Z,60.28
2023-02-15T13:08:59.804Z,60.26
2023-02-15T13:11:35.109Z,60.17
2023-02-15T13:14:05.137Z,60.37
2023-02-15T13:16:37.640Z,60.30
2023-02-15T13:19:13.045Z,60.34
2023-02-15T13:21:44.865Z,60.39
2023-02-15T13:24:20.527Z,60.32
2023-02-15T13:26:49.794Z,60.34
2023-02-15T13:29:23.701Z,60.16
2023-02-15T13:31:55.095Z,60.45
2023-02-15T13:34:27.801Z,60.32
2023-02-15T13:37:03.586Z,59.78
2023-02-15T13:39:41.642Z,59.65
2023-02-15T13:42:24.351Z,59.79
2023-02-15T13:45:16.626Z,59.64
2023-02-15T13:47:54.311Z,60.05
2023-02-15T13:50:37.212Z,60.05
2023-02-15T13:53:21.891Z,60.31
2023-02-15T13:55:53.911Z,60.28
2023-02-15T13:58:53.141Z,60.47
2023-02-15T14:01:30.916Z,60.15
2023-02-15T14:04:37.458Z,59.92
2023-02-15T14:07:19.043Z,59.80
2023-02-15T14:09:55.237Z,59.88
2023-02-15T14:12:39.467Z,59.17
2023-02-15T14:15:23.937Z,58.95
2023-02-15T14:18:02.724Z,59.11
2023-02-15T14:20:41.930Z,58.98
2023-02-15T14:23:28.607Z,58.75
2023-02-15T14:25:59.707Z,58.59
2023-02-15T14:28:36.073Z,57.87
2023-02-15T14:31:07.707Z,57.35
2023-02-15T14:33:41.042Z,57.47
2023-02-15T14:36:11.503Z,57.10
2023-02-15T14:38:58.094Z,57.39
2023-02-15T14:41:30.208Z,57.67
2023-02-15T14:44:04.245Z,57.52
2023-02-15T14:46:41.074Z,58.02
2023-02-15T14:49:13.993Z,60.19
2023-02-15T14:51:57.923Z,60.54
2023-02-15T14:55:09.076Z,56.21
2023-02-15T14:57:37.486Z,53.87
2023-02-15T15:00:41.316Z,53.10
2023-02-15T15:03:22.297Z,52.84
2023-02-15T15:05:53.760Z,52.84
2023-02-15T15:08:31.157Z,53.30
2023-02-15T15:11:43.691Z,52.78
2023-02-15T15:14:13.593Z,51.96
2023-02-15T15:16:53.330Z,52.30
2023-02-15T15:20:09.459Z,51.69
2023-02-15T15:22:38.573Z,50.53
2023-02-15T15:25:12.330Z,50.36
2023-02-15T15:27:48.708Z,50.17
2023-02-15T15:31:01.042Z,49.39
2023-02-15T15:34:04.579Z,49.30
2023-02-15T15:37:11.767Z,49.25
2023-02-15T15:40:22.601Z,50.03
2023-02-15T15:43:18.946Z,50.87
2023-02-15T15:46:04.706Z,50.48
2023-02-15T15:48:35.705Z,50.92
2023-02-15T15:51:08.842Z,50.78
2023-02-15T15:53:43.384Z,50.98
2023-02-15T15:56:17.114Z,51.47
2023-02-15T15:58:52.399Z,51.82
2023-02-15T16:01:27.380Z,52.14
2023-02-15T16:03:57.477Z,51.88
2023-02-15T16:06:34.653Z,52.48
2023-02-15T16:09:13.983Z,52.71
2023-02-15T16:11:42.634Z,52.87
2023-02-15T16:14:18.144Z,52.81
2023-02-15T16:16:52.922Z,53.00
2023-02-15T16:19:24.601Z,52.71
2023-02-15T16:21:52.621Z,52.23
2023-02-15T16:24:34.840Z,52.43
2023-02-15T16:27:26.807Z,52.38
2023-02-15T16:29:56.325Z,52.28
2023-02-15T16:32:25.672Z,52.31
2023-02-15T16:34:55.693Z,52.34
2023-02-15T16:37:28.541Z,52.77
2023-02-15T16:39:57.559Z,52.68
2023-02-15T16:42:26.285Z,52.89
2023-02-15T16:45:01.374Z,52.92
2023-02-15T16:47:32.774Z,53.21
2023-02-15T16:50:05.063Z,53.21
2023-02-15T16:52:33.332Z,53.33
2023-02-15T16:55:04.419Z,53.44
2023-02-15T16:57:36.937Z,53.58
2023-02-15T17:00:11.212Z,53.52
2023-02-15T17:02:55.567Z,53.40
2023-02-15T17:05:24.949Z,53.33
2023-02-15T17:08:07.828Z,53.27
2023-02-15T17:10:38.313Z,53.15
2023-02-15T17:13:12.657Z,53.10
2023-02-15T17:15:43.858Z,52.88
2023-02-15T17:18:18.831Z,53.16
2023-02-15T17:20:48.399Z,53.13
2023-02-15T17:23:27.810Z,53.09
2023-02-15T17:25:56.452Z,53.04
2023-02-15T17:28:28.002Z,53.24
2023-02-15T17:30:59.365Z,53.29
2023-02-15T17:33:37.771Z,53.18
2023-02-15T17:36:11.308Z,53.17
2023-02-15T17:38:41.666Z,53.00
2023-02-15T17:41:09.897Z,53.28
2023-02-15T17:43:37.850Z,53.23
2023-02-15T17:46:07.543Z,53.44
2023-02-15T17:48:39.466Z,53.45
2023-02-15T17:51:13.760Z,53.73
2023-02-15T17:53:41.937Z,53.61
2023-02-15T17:56:10.715Z,53.63
2023-02-15T17:58:39.432Z,53.46
2023-02-15T18:01:33.784Z,53.94
2023-02-15T18:04:19.132Z,53.54
2023-02-15T18:07:04.308Z,53.83
2023-02-15T18:09:49.658Z,53.67
2023-02-15T18:12:22.604Z,53.42
2023-02-15T18:14:50.936Z,53.87
2023-02-15T18:17:20.718Z,53.78
2023-02-15T18:22:47.440Z,53.74
2023-02-15T18:25:30.786Z,53.80
2023-02-15T18:27:58.866Z,53.89
2023-02-15T18:30:27.557Z,53.83
2023-02-15T18:33:05.528Z,54.03
2023-02-15T18:35:34.383Z,54.10
2023-02-15T18:38:03.012Z,54.01
2023-02-15T18:40:37.221Z,54.05
2023-02-15T18:43:06.442Z,53.93
2023-02-15T18:45:36.275Z,54.17
2023-02-15T18:48:21.481Z,53.91
2023-02-15T18:50:49.454Z,54.11
2023-02-15T18:53:20.973Z,54.16
2023-02-15T18:55:49.770Z,53.97
2023-02-15T18:58:20.033Z,54.51
2023-02-15T19:00:48.480Z,54.71
2023-02-15T19:03:18.212Z,54.53
2023-02-15T19:05:49.061Z,54.51
2023-02-15T19:08:22.034Z,54.47
2023-02-15T19:10:50.159Z,54.71
2023-02-15T19:13:18.746Z,54.92
2023-02-15T19:15:46.892Z,54.78
2023-02-15T19:18:15.659Z,54.67
2023-02-15T19:20:46.444Z,54.91
2023-02-15T19:23:20.175Z,54.81
2023-02-15T19:25:49.614Z,55.04
2023-02-15T19:28:22.837Z,55.03
2023-02-15T19:30:50.901Z,55.00
2023-02-15T19:33:23.824Z,55.18
2023-02-15T19:35:57.178Z,55.12
2023-02-15T19:38:32.180Z,55.18
2023-02-15T19:41:04.201Z,55.11
2023-02-15T19:43:32.489Z,55.01
2023-02-15T19:46:00.692Z,54.95
2023-02-15T19:48:28.802Z,55.36
2023-02-15T19:50:57.012Z,55.30
2023-02-15T19:53:28.778Z,55.30
2023-02-15T19:55:56.860Z,55.01
2023-02-15T19:58:25.729Z,55.19
2023-02-15T20:00:53.784Z,55.24
2023-02-15T20:03:22.156Z,55.29
2023-02-15T20:05:50.356Z,54.95
2023-02-15T20:08:20.717Z,55.35
2023-02-15T20:10:50.388Z,55.07
2023-02-15T20:13:20.698Z,55.31
2023-02-15T20:15:49.322Z,55.24
2023-02-15T20:18:17.403Z,55.19
2023-02-15T20:20:49.145Z,55.32
2023-02-15T20:23:22.373Z,55.31
2023-02-15T20:25:52.492Z,55.49
2023-02-15T20:28:22.232Z,55.30
2023-02-15T20:30:51.165Z,55.35
2023-02-15T20:33:20.635Z,55.45
2023-02-15T20:35:49.722Z,55.20
2023-02-15T20:38:21.621Z,55.42
2023-02-15T20:41:08.757Z,55.31
2023-02-15T20:43:37.324Z,55.39
2023-02-15T20:46:07.674Z,55.51
2023-02-15T20:48:36.363Z,55.32
2023-02-15T20:51:04.952Z,55.60
2023-02-15T20:53:33.209Z,55.38
2023-02-15T20:56:02.948Z,55.11
2023-02-15T20:58:32.145Z,55.44
2023-02-15T21:01:00.937Z,55.34
2023-02-15T21:03:31.300Z,55.33
2023-02-15T21:05:59.980Z,55.17
2023-02-15T21:08:28.379Z,55.34
2023-02-15T21:10:56.418Z,55.23
2023-02-15T21:13:28.454Z,55.30
2023-02-15T21:15:57.032Z,55.35
2023-02-15T21:18:26.872Z,55.36
2023-02-15T21:20:59.493Z,55.29
2023-02-15T21:23:30.533Z,55.47
2023-02-15T21:25:58.745Z,55.64
2023-02-15T21:28:30.104Z,55.39
2023-02-15T21:30:59.501Z,55.61
2023-02-15T21:33:28.441Z,55.34
2023-02-15T21:35:59.273Z,55.26
2023-02-15T21:38:31.416Z,55.26
2023-02-15T21:41:19.374Z,55.49
2023-02-15T21:44:06.293Z,55.46
2023-02-15T21:46:51.545Z,55.47
2023-02-15T21:49:19.680Z,55.52
2023-02-15T21:52:05.118Z,55.57
2023-02-15T21:54:33.126Z,55.31
2023-02-15T21:57:01.123Z,55.39
2023-02-15T21:59:30.642Z,55.70
2023-02-15T22:01:59.231Z,55.30
2023-02-15T22:04:29.574Z,55.67
2023-02-15T22:06:57.938Z,55.42
2023-02-15T22:09:28.020Z,55.42
2023-02-15T22:11:56.733Z,55.64
2023-02-15T22:14:39.123Z,55.45
2023-02-15T22:17:16.088Z,55.36
2023-02-15T22:19:44.538Z,55.46
2023-02-15T22:22:12.685Z,55.77
2023-02-15T22:24:40.805Z,55.42
2023-02-15T22:27:15.721Z,55.62
2023-02-15T22:29:45.282Z,55.64
2023-02-15T22:32:18.690Z,55.64
2023-02-15T22:34:47.416Z,55.82
2023-02-15T22:37:15.883Z,55.95
2023-02-15T22:39:44.191Z,55.81
2023-02-15T22:42:25.304Z,56.01
2023-02-15T22:44:56.678Z,55.96
2023-02-15T22:47:26.731Z,55.95
2023-02-15T22:49:55.653Z,55.78
2023-02-15T22:52:23.700Z,56.01
2023-02-15T22:54:51.707Z,55.92
2023-02-15T22:57:23.961Z,56.02
2023-02-15T22:59:59.435Z,55.94
2023-02-15T23:02:29.924Z,55.99
2023-02-15T23:05:00.202Z,56.11
2023-02-15T23:07:31.341Z,55.99
2023-02-15T23:09:59.291Z,55.96
2023-02-15T23:12:56.620Z,56.14
2023-02-15T23:15:29.093Z,55.83
2023-02-15T23:18:03.170Z,55.95
2023-02-15T23:20:47.213Z,55.79
2023-02-15T23:23:16.596Z,55.83
2023-02-15T23:25:46.272Z,55.57
2023-02-15T23:28:20.004Z,55.75
2023-02-15T23:30:52.119Z,55.71
2023-02-15T23:33:26.238Z,55.51
2023-02-15T23:36:00.416Z,55.47
2023-02-15T23:38:30.565Z,55.57
2023-02-15T23:41:22.481Z,55.22
2023-02-15T23:43:59.003Z,55.33
2023-02-15T23:46:48.769Z,55.32
2023-02-15T23:49:18.654Z,54.96
2023-02-15T23:51:49.105Z,55.11
2023-02-15T23:54:19.114Z,55.00
2023-02-15T23:56:50.888Z,54.91
2023-02-15T23:59:22.510Z,54.81
